Sitka, AK

2:17 AM AKDT on October 22, 2014 (GMT -0800)
Sitka Rocky Gutierrez | Change Station
CLOSE
Current Station
Airport
Location: Sitka,
Elevation: 20 ft
Nearby Weather Stations

Elev 20 ft 57.05 °N, 135.36 °W | Updated 24 minutes ago

Light Rain
Light Rain
47 °F
Feels Like 47 °F
N
18
Wind Variable Wind from ESE

Today
High -- | Low -- °F
--% Chance of Precip.
Yesterday
High -- | Low -- °F
Precip. -- in
7:50 AM 5:40 PM
Waning Crescent, 2% visible
Pressure 29.02 in
Visibility 10.0 miles
Clouds Overcast 5000 ft
Dew Point 41 °F
Humidity 80%
Rainfall 0.01 in
Snow Depth Not available.
UV 0 out of 12
Pollen Not available.
Air Quality Not available.
Flu Activity Sporadic
METAR PASI 220953Z 12016KT 10SM -RA OVC050 08/05 A2901 RMK AO2 RAB00 SLP825 P0001 T00830050

More Conditions Fewer Conditions

Pressure 29.02 in
Visibility 10.0 miles
Clouds Overcast 5000 ft
Dew Point 41 °F
Humidity 80%
Rainfall 0.01 in
Snow Depth Not available.
UV 0 out of 12
Pollen Not available.
Air Quality Not available.
Flu Activity Sporadic
METAR PASI 220953Z 12016KT 10SM -RA OVC050 08/05 A2901 RMK AO2 RAB00 SLP825 P0001 T00830050

More Conditions Fewer Conditions

10-Day Weather Forecast

Almanac

Astronomy

Oct. 22, 2014 Rise Set
Actual Time 7:50 AM AKDT 5:40 PM AKDT
Civil Twilight 7:10 AM AKDT 6:19 PM AKDT
Nautical Twilight 6:26 AM AKDT 7:04 PM AKDT
Astronomical Twilight 5:41 AM AKDT 7:48 PM AKDT
Moon 6:26 AM AKDT 5:19 PM AKDT
Length of Visible Light 11h 08m
Length of Day
9h 50m
Tomorrow will be 4m 40s shorter.
Waning Crescent, 2% of the Moon is Illuminated
Today
Waning Crescent
Oct 23
New
Oct 30
First Quarter
Nov 6
Full
Nov 14
Last Quarter

Today's Extremes

State Highs State Lows

Community

WunderPhotos

Upload Photos

1,763,901 photos uploaded!

Nearby

Snow Depth

Station Depth Elevation
Long Lake 0 in 820 ft
Upper Tsaina River 9 in 1750 ft
Moraine 0 in 2100 ft
Grandview 4 in 1100 ft
Grouse Creek Divide 0 in 700 ft

Earthquake Activity

City Distance Mag. Time & Date
No recent earthquake activity has been reported nearby.
Minimum magnitude displayed is 2.5.

Coastal Water Temperatures

Place Temperature
No Stations Reporting

Nearby Weather Stations